Time;durP1;ratioP1;P1;durP2;ratioP2;P2;SDS_P1;SDS_P2;PMS_P1;PMS_P2;Temp;Humidity;BMP_temperature;BMP_pressure;BME280_temperature;BME280_humidity;BME280_pressure;Samples;Min_cycle;Max_cycle;Signal;HPM_P1;HPM_P2
2022/06/01 05:08:54;;;;;;;3.37;2.20;;;;;;;16.90;66.51;99788.06;1756811;79;21039;-73
2022/06/01 05:11:21;;;;;;;3.55;2.02;;;;;;;16.95;66.56;99786.98;1753418;81;21110;-70
2022/06/01 05:13:47;;;;;;;3.75;2.47;;;;;;;16.97;66.53;99779.67;1754480;81;20988;-67
2022/06/01 05:16:16;;;;;;;5.70;2.92;;;;;;;17.02;66.84;99787.19;1756197;81;21082;-67
2022/06/01 05:18:42;;;;;;;2.65;2.40;;;;;;;17.10;67.00;99784.59;1748697;81;21510;-72
2022/06/01 05:21:09;;;;;;;5.55;2.55;;;;;;;17.17;66.65;99786.75;1753348;79;21618;-69
2022/06/01 05:23:37;;;;;;;4.92;2.65;;;;;;;17.23;66.58;99781.16;1725696;81;21032;-72
2022/06/01 05:26:08;;;;;;;4.45;2.47;;;;;;;17.30;66.62;99784.10;1755971;81;21035;-68
2022/06/01 05:28:36;;;;;;;5.17;3.17;;;;;;;17.38;66.61;99785.89;1759927;79;21546;-71
2022/06/01 05:31:09;;;;;;;10.80;3.95;;;;;;;17.45;66.63;99779.69;1761207;79;21091;-71
2022/06/01 05:33:36;;;;;;;6.97;3.08;;;;;;;17.52;66.67;99779.05;1760582;79;21191;-70
2022/06/01 05:36:07;;;;;;;3.12;2.37;;;;;;;17.60;66.53;99782.83;1755724;79;21093;-68
2022/06/01 05:38:35;;;;;;;8.15;2.87;;;;;;;17.66;66.04;99784.16;1751973;81;21042;-69
2022/06/01 05:41:02;;;;;;;3.52;3.00;;;;;;;17.68;65.51;99781.83;1752338;79;21100;-72
2022/06/01 05:43:29;;;;;;;8.65;4.20;;;;;;;17.71;65.59;99783.06;1756860;79;21476;-73
2022/06/01 05:46:07;;;;;;;5.97;3.72;;;;;;;17.78;66.00;99780.45;1755164;79;21039;-74
2022/06/01 05:48:43;;;;;;;4.45;2.77;;;;;;;17.86;66.19;99787.80;1750638;81;21536;-73
2022/06/01 05:51:11;;;;;;;8.20;3.20;;;;;;;17.96;66.35;99780.05;1795046;79;21046;-71
2022/06/01 05:53:39;;;;;;;6.83;4.40;;;;;;;18.04;65.84;99777.64;1792560;77;21486;-69
2022/06/01 05:56:08;;;;;;;7.85;3.72;;;;;;;18.10;66.27;99776.17;1790659;77;21029;-70
2022/06/01 05:58:35;;;;;;;8.03;3.27;;;;;;;18.18;66.30;99778.57;1806766;77;21043;-69
2022/06/01 06:01:05;;;;;;;3.00;2.60;;;;;;;18.25;66.31;99783.48;1793204;77;21038;-68
2022/06/01 06:03:34;;;;;;;4.55;2.75;;;;;;;18.33;66.62;99781.64;1790879;77;21022;-70
2022/06/01 06:06:12;;;;;;;5.17;3.92;;;;;;;18.37;65.68;99778.35;1792914;77;21081;-67
2022/06/01 06:08:55;;;;;;;8.80;4.40;;;;;;;18.36;65.74;99780.33;1804448;77;21416;-70
2022/06/01 06:11:26;;;;;;;;;;;;;;;18.42;66.10;99782.24;1809510;77;20980;-67
2022/06/01 06:13:52;;;;;;;7.70;3.70;;;;;;;18.52;66.35;99791.18;1802385;77;20198;-73
2022/06/01 06:16:23;;;;;;;4.97;3.45;;;;;;;18.58;66.08;99781.33;1799854;77;21007;-71
2022/06/01 06:18:51;;;;;;;6.85;3.50;;;;;;;18.64;66.23;99782.66;1798211;77;21183;-72
2022/06/01 06:21:18;;;;;;;12.55;4.20;;;;;;;18.71;66.45;99787.58;1808078;77;21010;-72
2022/06/01 06:23:45;;;;;;;6.40;3.47;;;;;;;18.73;65.53;99785.23;1801650;77;20995;-72
2022/06/01 06:26:13;;;;;;;4.20;3.27;;;;;;;18.73;65.66;99782.44;1755942;79;21006;-72
2022/06/01 06:28:40;;;;;;;4.15;3.12;;;;;;;18.81;66.27;99779.17;1786277;78;21513;-73
2022/06/01 06:31:09;;;;;;;8.65;3.77;;;;;;;18.92;66.04;99783.58;1804583;77;21181;-67
2022/06/01 06:33:36;;;;;;;7.50;4.12;;;;;;;19.00;65.79;99776.12;1750985;79;21508;-71
2022/06/01 06:36:06;;;;;;;7.37;3.40;;;;;;;19.08;66.14;99776.46;1794879;79;21057;-66
2022/06/01 06:38:35;;;;;;;8.90;3.22;;;;;;;19.10;65.64;99771.31;1747954;81;21069;-68
2022/06/01 06:41:03;;;;;;;5.72;3.30;;;;;;;19.14;65.86;99765.83;1788861;79;21048;-72
2022/06/01 06:43:30;;;;;;;7.40;3.70;;;;;;;19.21;65.90;99765.92;1773960;79;21145;-62
2022/06/01 06:46:15;;;;;;;5.47;3.62;;;;;;;19.30;65.50;99767.07;1795473;79;21677;-69
2022/06/01 06:48:43;;;;;;;6.05;3.75;;;;;;;19.36;65.35;99761.41;1793227;79;21046;-73
2022/06/01 06:51:10;;;;;;;7.22;3.62;;;;;;;19.44;65.77;99756.14;1757029;80;21029;-70
2022/06/01 07:00:18;;;;;;;9.08;3.70;;;;;;;19.74;66.23;99752.38;1799202;79;21024;-74
2022/06/01 07:02:48;;;;;;;4.97;3.35;;;;;;;19.83;66.30;99753.71;1796180;79;21558;-76
2022/06/01 07:06:08;;;;;;;22.80;5.22;;;;;;;19.93;66.26;99751.42;1797296;79;21089;-75
2022/06/01 07:07:45;;;;;;;12.65;4.45;;;;;;;20.03;66.56;99751.34;1797679;77;21423;-76
2022/06/01 07:10:14;;;;;;;10.68;5.15;;;;;;;20.13;66.79;99750.71;1798650;79;21520;-75
2022/06/01 07:12:40;;;;;;;6.30;4.03;;;;;;;20.22;67.15;99754.63;1794899;79;21074;-75
2022/06/01 07:15:12;;;;;;;7.35;4.62;;;;;;;20.34;66.94;99755.55;1758106;79;21019;-75
2022/06/01 07:17:39;;;;;;;6.30;3.90;;;;;;;20.42;67.27;99751.06;1791591;79;21503;-75
2022/06/01 07:20:08;;;;;;;5.65;4.20;;;;;;;20.54;67.55;99747.78;1793688;79;21113;-76
2022/06/01 07:22:34;;;;;;;9.40;4.10;;;;;;;20.63;67.55;99746.89;1801191;79;21257;-75
2022/06/01 07:25:01;;;;;;;8.63;4.40;;;;;;;20.71;66.93;99744.95;1794192;79;21011;-75
2022/06/01 07:27:28;;;;;;;6.25;4.42;;;;;;;20.78;67.17;99738.62;1793331;79;21043;-76
2022/06/01 07:29:55;;;;;;;7.58;3.80;;;;;;;20.89;67.24;99740.14;1789810;79;20983;-74
2022/06/01 07:32:22;;;;;;;4.28;3.77;;;;;;;20.99;67.24;99737.25;1794519;79;21604;-75
2022/06/01 07:34:49;;;;;;;12.13;4.03;;;;;;;21.05;66.81;99732.92;1792468;77;22220;-73
2022/06/01 07:43:06;;;;;;;6.97;4.20;;;;;;;21.19;66.82;99729.41;1740295;82;21046;-74
2022/06/01 07:45:35;;;;;;;4.30;3.90;;;;;;;21.29;66.88;99729.28;1747711;79;21062;-76
2022/06/01 07:48:03;;;;;;;7.28;4.22;;;;;;;21.38;66.63;99729.77;1753226;81;22215;-75
2022/06/01 07:51:04;;;;;;;7.08;4.12;;;;;;;21.49;66.81;99727.05;1756388;80;21029;-74
2022/06/01 07:57:55;;;;;;;8.95;4.75;;;;;;;21.67;65.96;99729.73;1692593;82;21108;-76
2022/06/01 08:00:33;;;;;;;7.58;4.15;;;;;;;21.72;65.46;99735.78;1695337;84;36573;-75
2022/06/01 08:03:00;;;;;;;11.12;4.87;;;;;;;21.81;66.49;99735.46;1721885;81;21871;-76
2022/06/01 08:05:27;;;;;;;10.38;4.50;;;;;;;21.91;66.29;99738.70;1756904;81;21071;-75
2022/06/01 08:07:53;;;;;;;5.35;4.20;;;;;;;21.99;65.85;99741.77;1738991;82;21670;-74
2022/06/01 08:10:30;;;;;;;6.00;4.12;;;;;;;22.05;65.81;99733.77;1748498;81;21078;-76
2022/06/01 08:13:06;;;;;;;6.50;4.28;;;;;;;22.13;65.39;99728.39;1749726;79;21628;-73
2022/06/01 08:15:38;;;;;;;7.17;3.75;;;;;;;22.22;65.39;99730.83;1748984;79;21575;-75
2022/06/01 08:18:04;;;;;;;8.63;4.17;;;;;;;22.30;64.86;99738.07;1749472;81;21027;-68
2022/06/01 08:20:31;;;;;;;12.88;5.12;;;;;;;22.37;64.49;99731.08;1746596;81;22244;-72
2022/06/01 08:23:25;;;;;;;9.58;5.25;;;;;;;22.43;64.46;99728.70;1750028;79;21039;-73
2022/06/01 08:26:04;;;;;;;9.43;4.87;;;;;;;22.52;65.15;99729.70;1731455;80;21063;-73
2022/06/01 08:28:31;;;;;;;12.28;5.22;;;;;;;22.63;63.95;99727.55;1746387;79;22007;-69
2022/06/01 08:31:21;;;;;;;10.32;4.40;;;;;;;22.70;64.06;99728.98;1750737;81;21174;-73
2022/06/01 08:33:51;;;;;;;4.78;3.72;;;;;;;22.73;62.97;99734.60;1749579;81;21102;-72
2022/06/01 08:36:28;;;;;;;11.45;4.72;;;;;;;22.74;62.67;99733.98;1737710;81;21050;-70
2022/06/01 08:38:56;;;;;;;8.88;5.03;;;;;;;22.82;62.60;99739.84;1748083;81;21039;-72
2022/06/01 08:41:29;;;;;;;8.68;4.50;;;;;;;22.89;61.75;99741.84;1750871;81;22156;-74
2022/06/01 08:44:31;;;;;;;7.83;4.47;;;;;;;22.95;61.78;99739.42;1745757;79;21074;-68
2022/06/01 08:47:04;;;;;;;9.65;4.60;;;;;;;22.97;61.78;99732.81;1745807;81;21083;-73
2022/06/01 08:49:33;;;;;;;6.83;4.30;;;;;;;23.02;61.53;99735.81;1754508;81;21047;-71
2022/06/01 08:52:02;;;;;;;9.13;4.37;;;;;;;23.06;61.38;99737.45;1701245;81;21127;-70
2022/06/01 08:54:30;;;;;;;6.25;4.33;;;;;;;23.12;61.24;99732.80;1736477;80;21096;-74
2022/06/01 08:57:11;;;;;;;8.10;4.90;;;;;;;23.18;62.18;99728.41;1728601;82;21081;-71
2022/06/01 09:00:01;;;;;;;7.10;4.80;;;;;;;23.24;61.87;99719.77;1748560;81;21094;-73
2022/06/01 09:02:40;;;;;;;8.48;4.65;;;;;;;23.31;61.19;99715.55;1715907;81;21107;-77
2022/06/01 09:05:33;;;;;;;10.35;4.50;;;;;;;23.36;60.61;99715.73;1753067;81;21051;-70
2022/06/01 09:08:48;;;;;;;9.55;5.42;;;;;;;23.43;60.49;99719.98;1762013;81;21622;-70
2022/06/01 09:11:37;;;;;;;9.30;3.65;;;;;;;23.55;60.71;99713.13;1759140;80;21043;-70
2022/06/01 09:14:31;;;;;;;50.00;6.42;;;;;;;23.68;59.39;99714.08;1760193;80;21042;-72
2022/06/01 09:17:07;;;;;;;9.48;4.00;;;;;;;23.74;59.69;99715.28;1809766;78;21029;-74
2022/06/01 09:22:38;;;;;;;16.12;4.40;;;;;;;23.91;59.65;99721.25;1806486;78;22004;-75
2022/06/01 09:25:15;;;;;;;5.78;3.95;;;;;;;23.97;59.52;99708.36;1805273;78;21061;-75
2022/06/01 09:27:51;;;;;;;7.80;4.25;;;;;;;24.01;58.74;99708.34;1805333;78;21069;-75
2022/06/01 09:30:29;;;;;;;11.10;4.33;;;;;;;24.06;59.23;99706.52;1804140;77;21061;-71
2022/06/01 09:33:26;;;;;;;8.43;4.60;;;;;;;24.13;57.83;99710.72;1802497;78;21077;-72
2022/06/01 09:36:13;;;;;;;7.05;4.15;;;;;;;24.17;56.91;99707.30;1779155;77;21815;-71
2022/06/01 09:38:56;;;;;;;8.75;4.58;;;;;;;24.17;55.83;99698.85;1796002;78;21402;-72
2022/06/01 09:41:36;;;;;;;9.13;5.03;;;;;;;24.19;57.16;99698.47;1803481;78;21022;-74
2022/06/01 09:44:10;;;;;;;10.40;5.05;;;;;;;24.20;57.69;99698.66;1800834;78;21011;-71
2022/06/01 09:46:55;;;;;;;10.43;4.60;;;;;;;24.21;57.57;99693.20;1807198;78;21045;-71
2022/06/01 09:49:32;;;;;;;7.92;4.67;;;;;;;24.28;57.88;99692.37;1804234;77;21118;-71
2022/06/01 09:52:08;;;;;;;9.30;4.75;;;;;;;24.31;57.59;99693.76;1807704;78;21065;-73
2022/06/01 09:54:37;;;;;;;7.78;4.87;;;;;;;24.37;57.48;99687.70;1785360;78;21638;-66
2022/06/01 09:57:30;;;;;;;9.60;3.95;;;;;;;24.46;57.32;99687.25;1801605;78;21492;-68
2022/06/01 10:06:05;;;;;;;5.80;3.83;;;;;;;24.67;56.41;99684.88;1805010;78;21006;-70
2022/06/01 10:08:29;;;;;;;7.87;4.33;;;;;;;24.79;54.63;99680.16;1808370;78;21467;-67
2022/06/01 10:11:05;;;;;;;7.55;4.60;;;;;;;24.72;55.08;99681.62;1795937;78;20984;-67
2022/06/01 10:13:52;;;;;;;10.40;5.50;;;;;;;24.63;55.68;99685.53;1798061;78;21058;-68
2022/06/01 10:16:42;;;;;;;6.00;3.58;;;;;;;24.59;56.66;99678.51;1761783;80;21137;-66
2022/06/01 10:19:13;;;;;;;8.78;3.52;;;;;;;24.63;55.60;99679.89;1754712;81;21531;-68
2022/06/01 10:21:54;;;;;;;5.90;3.60;;;;;;;24.64;54.86;99674.44;1753223;81;21046;-68
2022/06/01 10:24:32;;;;;;;7.72;3.85;;;;;;;24.72;54.36;99675.20;1754416;81;21062;-71
2022/06/01 10:26:59;;;;;;;6.50;4.25;;;;;;;24.77;53.64;99674.14;1723847;81;21545;-71
2022/06/01 10:29:46;;;;;;;5.60;3.55;;;;;;;24.82;54.92;99679.15;1734697;81;21082;-68
2022/06/01 10:32:47;;;;;;;6.67;4.00;;;;;;;24.84;55.56;99683.14;1740346;80;21031;-73
2022/06/01 10:35:45;;;;;;;5.70;3.85;;;;;;;24.88;56.40;99676.06;1743076;80;21051;-67
2022/06/01 10:38:21;;;;;;;5.97;3.87;;;;;;;24.96;56.11;99669.18;1739990;81;21043;-74
2022/06/01 10:41:16;;;;;;;6.12;3.47;;;;;;;25.04;56.17;99676.35;1740655;80;21102;-68
2022/06/01 10:44:05;;;;;;;6.95;3.40;;;;;;;25.12;55.03;99672.06;1715390;81;21582;-69
2022/06/01 10:47:05;;;;;;;6.08;3.47;;;;;;;25.14;55.26;99673.87;1733706;81;21110;-66
2022/06/01 10:50:00;;;;;;;6.05;3.52;;;;;;;25.16;53.75;99669.39;1740739;81;21013;-74
2022/06/01 10:52:43;;;;;;;4.17;3.37;;;;;;;25.16;54.13;99669.39;1745115;81;21089;-69
2022/06/01 10:55:35;;;;;;;9.28;4.12;;;;;;;25.18;54.35;99661.16;1740798;81;21089;-66
2022/06/01 10:58:01;;;;;;;5.78;3.05;;;;;;;25.22;54.29;99651.44;1746594;81;22261;-69
2022/06/01 11:00:40;;;;;;;4.15;3.62;;;;;;;25.34;53.83;99653.52;1740156;81;21054;-73
2022/06/01 11:03:27;;;;;;;7.08;3.52;;;;;;;25.46;54.55;99648.77;1744399;81;21000;-67
2022/06/01 11:06:47;;;;;;;9.68;3.55;;;;;;;25.59;53.65;99641.96;1792754;79;21042;-67
2022/06/01 11:09:25;;;;;;;5.22;3.95;;;;;;;25.64;54.22;99644.34;1797610;79;21031;-73
2022/06/01 11:12:08;;;;;;;4.53;3.05;;;;;;;25.72;54.50;99642.25;1799915;79;20995;-67
2022/06/01 11:15:03;;;;;;;6.43;3.50;;;;;;;25.74;53.33;99639.01;1798633;79;21035;-68
2022/06/01 11:17:45;;;;;;;7.62;3.58;;;;;;;25.67;52.16;99635.67;1797568;79;21519;-71
2022/06/01 11:20:36;;;;;;;7.95;4.22;;;;;;;25.59;52.42;99634.13;1794619;79;21636;-68
2022/06/01 11:23:49;;;;;;;8.18;3.50;;;;;;;25.54;53.45;99635.37;1785522;79;21040;-66
2022/06/01 11:26:48;;;;;;;5.72;3.58;;;;;;;25.49;53.42;99633.02;1794467;79;21644;-71
2022/06/01 11:29:23;;;;;;;8.63;3.27;;;;;;;25.46;53.69;99629.03;1763796;80;21416;-70
2022/06/01 11:31:52;;;;;;;8.03;3.87;;;;;;;25.44;53.92;99624.41;1797187;79;21054;-70
2022/06/01 11:34:22;;;;;;;8.33;3.27;;;;;;;25.50;54.20;99632.59;1785141;79;21102;-71
2022/06/01 11:37:04;;;;;;;7.22;3.20;;;;;;;25.59;54.04;99632.09;1760915;81;21052;-73
2022/06/01 11:39:44;;;;;;;6.78;3.27;;;;;;;25.69;54.27;99631.02;1799580;78;21136;-67
2022/06/01 11:42:43;;;;;;;8.95;3.52;;;;;;;25.81;53.75;99631.06;1794023;79;21737;-67
2022/06/01 11:45:25;;;;;;;6.80;3.62;;;;;;;25.96;55.55;99632.48;1799740;79;20988;-73
2022/06/01 11:47:56;;;;;;;6.83;3.35;;;;;;;26.11;54.30;99626.63;1793093;79;21066;-69
2022/06/01 11:50:58;;;;;;;6.67;3.30;;;;;;;26.14;53.51;99630.00;1790828;79;21053;-69
2022/06/01 11:53:37;;;;;;;3.47;2.70;;;;;;;26.10;51.38;99631.45;1797184;79;21879;-67
2022/06/01 11:56:17;;;;;;;6.33;3.10;;;;;;;26.05;50.67;99632.56;1788599;79;20998;-69
2022/06/01 11:58:50;;;;;;;9.78;3.33;;;;;;;26.01;50.38;99626.97;1785932;79;21075;-66
2022/06/01 12:01:45;;;;;;;4.22;2.65;;;;;;;26.05;50.46;99618.45;1752296;81;21675;-67
2022/06/01 12:04:34;;;;;;;6.08;2.75;;;;;;;26.16;50.98;99619.09;1761428;81;21051;-72
2022/06/01 12:07:16;;;;;;;6.92;3.17;;;;;;;26.31;51.22;99618.25;1749525;81;21086;-71
2022/06/01 12:09:48;;;;;;;4.65;3.37;;;;;;;26.41;50.60;99614.33;1799491;79;21082;-73
2022/06/01 12:12:35;;;;;;;6.25;3.00;;;;;;;26.41;50.43;99614.33;1794097;78;21024;-69
2022/06/01 12:15:32;;;;;;;7.28;3.22;;;;;;;26.40;50.21;99615.53;1783054;79;21070;-73
2022/06/01 12:18:19;;;;;;;5.08;2.90;;;;;;;26.46;51.49;99611.02;1782756;79;21628;-67
2022/06/01 12:20:52;;;;;;;6.62;3.20;;;;;;;26.58;52.05;99614.63;1779284;79;21526;-72
2022/06/01 12:28:58;;;;;;;6.97;2.47;;;;;;;26.84;49.54;99605.73;1756257;81;20986;-65
2022/06/01 12:31:38;;;;;;;8.90;3.70;;;;;;;26.83;50.23;99604.14;1785922;79;21047;-68
2022/06/01 12:34:10;;;;;;;7.05;3.17;;;;;;;26.89;50.64;99599.58;1785545;79;21941;-70
2022/06/01 12:36:51;;;;;;;11.22;3.20;;;;;;;26.91;50.41;99604.19;1772626;79;20979;-68
2022/06/01 12:39:35;;;;;;;4.12;2.92;;;;;;;26.83;48.74;99598.48;1784017;79;21138;-69
2022/06/01 12:42:10;;;;;;;4.62;3.58;;;;;;;26.70;47.98;99597.69;1799048;79;21026;-65
2022/06/01 12:44:38;;;;;;;5.03;3.37;;;;;;;26.65;49.26;99598.81;1756852;81;21084;-68
2022/06/01 12:47:05;;;;;;;4.58;3.30;;;;;;;26.64;48.75;99597.20;1800774;79;21120;-71
2022/06/01 12:49:42;;;;;;;4.20;2.50;;;;;;;26.66;49.16;99598.98;1765216;79;21466;-68
2022/06/01 12:52:12;;;;;;;13.22;3.70;;;;;;;26.72;49.38;99593.02;1781282;79;21021;-70
2022/06/01 12:54:41;;;;;;;8.23;4.00;;;;;;;26.77;48.56;99598.17;1800250;79;21464;-67
2022/06/01 12:57:12;;;;;;;6.53;4.08;;;;;;;26.80;48.19;99592.30;1760172;81;21052;-68
2022/06/01 12:59:40;;;;;;;5.60;3.30;;;;;;;26.81;47.85;99591.05;1755452;81;21711;-66
2022/06/01 13:02:11;;;;;;;11.53;3.37;;;;;;;26.88;48.12;99590.13;1796325;79;21110;-67
2022/06/01 13:04:38;;;;;;;4.72;2.62;;;;;;;26.87;48.07;99593.55;1798837;79;21010;-74
2022/06/01 13:07:08;;;;;;;8.08;4.12;;;;;;;26.90;47.88;99591.30;1799366;79;21381;-70
2022/06/01 13:09:36;;;;;;;8.83;2.87;;;;;;;26.96;47.22;99590.17;1799812;77;21393;-68
2022/06/01 13:12:06;;;;;;;4.20;2.67;;;;;;;26.98;45.97;99589.13;1790432;78;21491;-69
2022/06/01 13:14:35;;;;;;;3.40;2.62;;;;;;;26.84;46.10;99581.10;1743048;81;21029;-71
2022/06/01 13:17:13;;;;;;;6.03;2.75;;;;;;;26.84;47.73;99572.63;1786017;79;21102;-68
2022/06/01 13:19:41;;;;;;;5.60;3.02;;;;;;;26.92;46.50;99578.93;1789920;79;21125;-69
2022/06/01 13:22:21;;;;;;;6.00;3.87;;;;;;;27.00;46.42;99566.09;1784025;79;21054;-72
2022/06/01 13:24:56;;;;;;;9.63;3.17;;;;;;;27.11;47.45;99563.88;1785503;79;21184;-68
2022/06/01 13:27:24;;;;;;;15.48;3.02;;;;;;;27.26;47.09;99556.53;1781904;79;20975;-66
2022/06/01 13:29:58;;;;;;;7.75;2.80;;;;;;;27.35;47.17;99560.98;1784426;79;21526;-70
2022/06/01 13:32:29;;;;;;;4.03;2.72;;;;;;;27.42;47.05;99553.77;1785976;79;20980;-72
2022/06/01 13:34:55;;;;;;;4.12;2.80;;;;;;;27.49;47.09;99552.01;1786081;79;21091;-70
2022/06/01 13:37:27;;;;;;;4.50;2.67;;;;;;;27.53;46.51;99560.63;1707808;79;21092;-72
2022/06/01 13:40:05;;;;;;;5.87;2.95;;;;;;;27.57;45.57;99559.11;1780984;80;21131;-69
2022/06/01 13:42:48;;;;;;;8.23;2.92;;;;;;;27.59;45.48;99562.30;1785779;79;21026;-73
2022/06/01 13:45:41;;;;;;;5.08;2.85;;;;;;;27.61;45.04;99557.62;1786296;79;21527;-68
2022/06/01 13:48:15;;;;;;;10.58;3.20;;;;;;;27.65;44.67;99558.34;1788193;79;21039;-68
2022/06/01 13:51:10;;;;;;;6.62;2.77;;;;;;;27.65;44.16;99545.62;1789283;79;21496;-72
2022/06/01 13:53:45;;;;;;;6.15;2.55;;;;;;;27.58;44.55;99549.40;1785544;79;21066;-73
2022/06/01 13:56:34;;;;;;;6.95;3.12;;;;;;;27.54;44.56;99545.84;1784721;78;21085;-74
2022/06/01 13:59:04;;;;;;;10.80;2.55;;;;;;;27.50;45.67;99542.31;1766010;79;20983;-73
2022/06/01 14:01:45;;;;;;;13.05;3.02;;;;;;;27.45;45.25;99541.58;1789980;79;21607;-72
2022/06/01 14:04:29;;;;;;;14.95;4.62;;;;;;;27.46;44.79;99540.97;1789103;79;21927;-72
2022/06/01 14:06:58;;;;;;;;;;;;;;;27.45;44.65;99542.98;1793221;79;20984;-73
2022/06/01 14:09:34;;;;;;;14.23;4.15;;;;;;;27.43;44.67;99544.03;1766653;79;20136;-73
2022/06/01 14:12:00;;;;;;;14.58;3.52;;;;;;;27.41;44.27;99542.28;1786761;79;20998;-72
2022/06/01 14:14:34;;;;;;;4.33;2.67;;;;;;;27.39;44.06;99538.28;1763588;80;21065;-72
2022/06/01 14:17:06;;;;;;;;;;;;;;;27.37;44.56;99535.89;1747712;80;21031;-72
2022/06/01 14:19:35;;;;;;;5.75;2.90;;;;;;;27.33;44.94;99535.19;1786118;79;20141;-70
2022/06/01 14:22:05;;;;;;;6.92;2.90;;;;;;;27.27;45.46;99526.41;1788119;79;21563;-73
2022/06/01 14:30:06;;;;;;;6.47;3.87;;;;;;;27.06;45.68;99524.20;1781842;79;21461;-67
2022/06/01 14:32:33;;;;;;;7.70;3.08;;;;;;;27.05;45.95;99517.56;1788448;79;21496;-69
2022/06/01 14:35:00;;;;;;;5.80;2.70;;;;;;;27.02;46.17;99513.59;1786742;79;21042;-72
2022/06/01 14:37:27;;;;;;;9.38;3.30;;;;;;;27.00;46.70;99514.61;1786903;79;20983;-73
2022/06/01 14:39:56;;;;;;;4.37;2.75;;;;;;;26.96;47.02;99513.87;1788218;79;20992;-74
2022/06/01 14:42:22;;;;;;;5.50;3.35;;;;;;;26.93;46.81;99510.50;1763166;79;21206;-74
2022/06/01 14:44:49;;;;;;;9.75;3.92;;;;;;;26.91;46.98;99509.52;1786649;79;20992;-74
2022/06/01 14:47:16;;;;;;;8.38;3.00;;;;;;;26.89;46.71;99506.33;1769668;79;21496;-71
2022/06/01 14:49:43;;;;;;;5.67;2.47;;;;;;;26.85;46.91;99502.79;1788086;79;21031;-71
2022/06/01 14:52:09;;;;;;;7.95;3.00;;;;;;;26.82;46.77;99503.03;1784742;79;22237;-69
2022/06/01 14:54:38;;;;;;;8.70;3.47;;;;;;;26.78;47.04;99498.69;1739560;79;22105;-73
2022/06/01 14:57:06;;;;;;;10.23;2.92;;;;;;;26.74;46.18;99497.34;1783278;79;20976;-73
2022/06/01 14:59:33;;;;;;;6.40;3.50;;;;;;;26.68;46.44;99499.08;1782602;79;21539;-71
2022/06/01 15:02:00;;;;;;;8.68;4.12;;;;;;;26.65;46.88;99499.95;1780904;79;21055;-69
2022/06/01 15:04:34;;;;;;;10.30;3.50;;;;;;;26.61;46.71;99502.83;1782354;79;21543;-69
2022/06/01 15:07:00;;;;;;;4.25;3.02;;;;;;;26.58;46.49;99498.05;1781624;79;21945;-68
2022/06/01 15:09:27;;;;;;;8.28;4.15;;;;;;;26.52;46.69;99498.34;1782063;79;21043;-74
2022/06/01 15:11:53;;;;;;;7.05;2.98;;;;;;;26.47;46.86;99500.45;1784363;79;20996;-68
2022/06/01 15:14:25;;;;;;;5.72;2.95;;;;;;;26.41;46.23;99504.98;1757952;80;21029;-67
2022/06/01 15:16:56;;;;;;;7.80;3.40;;;;;;;26.35;46.64;99503.89;1783680;79;21615;-71
2022/06/01 15:19:25;;;;;;;7.33;3.20;;;;;;;26.30;46.13;99503.74;1783576;79;21793;-67
2022/06/01 15:21:51;;;;;;;10.70;5.65;;;;;;;26.27;46.03;99513.08;1783748;79;21180;-72
2022/06/01 15:24:19;;;;;;;6.58;4.85;;;;;;;26.22;46.03;99502.27;1784769;79;20983;-71
2022/06/01 15:26:49;;;;;;;11.53;4.53;;;;;;;26.18;46.30;99500.11;1787436;79;21023;-70
2022/06/01 15:40:24;;;;;;;4.25;2.77;;;;;;;25.95;46.52;99501.70;1781990;78;21039;-73
2022/06/01 15:42:51;;;;;;;5.22;3.20;;;;;;;25.91;46.24;99505.98;1783343;79;21027;-71
2022/06/01 15:45:21;;;;;;;22.70;15.03;;;;;;;25.87;46.74;99503.81;1786092;79;21620;-73
2022/06/01 15:48:00;;;;;;;44.15;34.80;;;;;;;25.84;47.22;99504.06;1780604;79;21043;-73
2022/06/01 15:50:32;;;;;;;16.57;10.45;;;;;;;25.83;47.14;99504.50;1777452;79;21030;-72
2022/06/01 15:52:59;;;;;;;21.97;5.05;;;;;;;25.83;47.12;99506.69;1785808;79;20987;-74
2022/06/01 15:55:26;;;;;;;37.20;22.85;;;;;;;25.86;47.16;99505.05;1786638;79;20983;-68
2022/06/01 15:57:53;;;;;;;33.73;21.20;;;;;;;25.84;47.04;99509.70;1788694;79;21507;-70
2022/06/01 16:00:21;;;;;;;9.25;7.33;;;;;;;25.86;47.35;99506.46;1771295;80;21486;-64
2022/06/01 16:02:48;;;;;;;12.75;4.67;;;;;;;25.85;47.41;99507.06;1784728;79;20988;-72
2022/06/01 16:05:15;;;;;;;6.33;2.85;;;;;;;25.81;46.40;99502.08;1786999;79;21047;-70
2022/06/01 16:07:44;;;;;;;8.65;2.67;;;;;;;25.72;45.69;99502.62;1786288;79;21751;-69
2022/06/01 16:10:11;;;;;;;4.75;2.92;;;;;;;25.68;45.72;99501.88;1787485;79;21101;-69
2022/06/01 16:12:38;;;;;;;6.12;3.05;;;;;;;25.59;45.73;99508.63;1793663;79;21012;-66
2022/06/01 16:15:08;;;;;;;4.67;2.87;;;;;;;25.52;46.00;99507.49;1769334;79;21009;-68
2022/06/01 16:17:44;;;;;;;3.70;3.00;;;;;;;25.47;47.30;99505.14;1797044;79;21047;-67
2022/06/01 16:20:13;;;;;;;6.92;2.87;;;;;;;25.41;48.02;99501.20;1795782;77;21109;-70
2022/06/01 16:22:40;;;;;;;5.72;2.87;;;;;;;25.36;48.28;99496.04;1795343;79;21142;-71
2022/06/01 16:25:10;;;;;;;8.60;2.90;;;;;;;25.33;48.13;99506.75;1801634;79;20973;-65
2022/06/01 16:27:41;;;;;;;5.33;2.70;;;;;;;25.31;47.67;99507.78;1790678;79;21014;-72
2022/06/01 16:30:10;;;;;;;4.58;2.92;;;;;;;25.26;47.69;99508.45;1794762;79;20967;-67
2022/06/01 16:32:43;;;;;;;6.90;3.20;;;;;;;25.22;47.30;99506.88;1729546;82;20998;-66
2022/06/01 16:35:20;;;;;;;6.78;2.85;;;;;;;25.15;47.16;99507.16;1763164;81;21149;-67
2022/06/01 16:37:49;;;;;;;7.47;2.85;;;;;;;25.11;46.93;99502.17;1758173;81;21532;-67
2022/06/01 16:40:17;;;;;;;8.90;2.77;;;;;;;25.06;47.07;99504.04;1753520;81;21122;-64
2022/06/01 16:42:48;;;;;;;12.05;3.70;;;;;;;25.00;47.27;99498.09;1759391;79;21024;-71
2022/06/01 16:45:23;;;;;;;10.60;3.00;;;;;;;24.95;47.49;99494.33;1756371;81;21113;-66
2022/06/01 16:47:51;;;;;;;5.90;2.62;;;;;;;24.90;47.49;99495.56;1761888;81;21042;-70
2022/06/01 16:50:22;;;;;;;9.35;3.85;;;;;;;24.86;47.41;99494.79;1740812;81;21007;-69
2022/06/01 16:52:49;;;;;;;5.55;3.15;;;;;;;24.83;47.36;99494.83;1745718;81;21554;-71
2022/06/01 16:55:17;;;;;;;6.78;2.92;;;;;;;24.78;47.27;99489.05;1801052;79;21574;-71
2022/06/01 16:57:47;;;;;;;7.55;3.25;;;;;;;24.75;47.37;99495.53;1794014;79;21026;-71
2022/06/01 17:00:17;;;;;;;6.00;2.95;;;;;;;24.67;48.03;99497.59;1794437;79;21075;-69
2022/06/01 17:02:46;;;;;;;8.95;3.05;;;;;;;24.60;48.69;99500.51;1797909;79;21023;-66
2022/06/01 17:05:13;;;;;;;7.85;2.87;;;;;;;24.53;49.55;99495.12;1802468;79;21036;-66
2022/06/01 17:07:41;;;;;;;13.03;3.35;;;;;;;24.44;49.97;99487.78;1798108;79;20972;-65
2022/06/01 17:10:09;;;;;;;9.63;3.87;;;;;;;24.37;49.55;99480.80;1794754;79;21026;-70
2022/06/01 17:12:38;;;;;;;8.10;3.42;;;;;;;24.31;49.14;99482.66;1789939;78;21015;-67
2022/06/01 17:15:06;;;;;;;7.92;3.60;;;;;;;24.26;49.17;99487.95;1787174;79;21614;-66
2022/06/01 17:17:37;;;;;;;8.73;3.47;;;;;;;24.19;49.50;99488.19;1756944;81;21051;-69
2022/06/01 17:20:05;;;;;;;6.03;2.87;;;;;;;24.14;49.61;99490.64;1752560;81;21012;-69
2022/06/01 17:22:32;;;;;;;8.00;3.33;;;;;;;24.05;50.00;99486.26;1751052;81;21059;-67
2022/06/01 17:24:58;;;;;;;7.65;3.30;;;;;;;23.98;50.31;99484.92;1750019;79;21150;-75
2022/06/01 17:27:28;;;;;;;4.53;3.17;;;;;;;23.91;50.90;99483.56;1749366;81;21047;-68
2022/06/01 17:29:56;;;;;;;8.75;3.58;;;;;;;23.82;52.41;99484.84;1750428;81;21047;-68
2022/06/01 17:32:23;;;;;;;5.47;3.62;;;;;;;23.70;53.73;99493.15;1789516;79;21472;-69
2022/06/01 17:34:51;;;;;;;6.60;3.33;;;;;;;23.58;54.60;99492.20;1788732;79;20980;-67
2022/06/01 17:37:19;;;;;;;7.35;3.22;;;;;;;23.50;55.53;99493.46;1740602;79;21485;-64
2022/06/01 17:39:45;;;;;;;5.08;3.58;;;;;;;23.44;56.12;99495.30;1789169;79;21027;-70
2022/06/01 17:42:11;;;;;;;9.58;4.00;;;;;;;23.37;56.45;99507.97;1788719;79;21050;-69
2022/06/01 17:44:39;;;;;;;15.78;4.53;;;;;;;23.29;57.01;99511.40;1772399;80;21017;-71
2022/06/01 17:47:06;;;;;;;24.63;5.03;;;;;;;23.21;57.67;99508.42;1774902;80;21025;-71
2022/06/01 17:49:33;;;;;;;23.50;3.80;;;;;;;23.13;58.38;99515.28;1788654;79;22088;-72
2022/06/01 17:51:59;;;;;;;19.48;3.90;;;;;;;23.03;58.44;99516.30;1785818;79;21479;-65
2022/06/01 17:54:26;;;;;;;18.90;4.15;;;;;;;22.96;58.72;99514.94;1783405;79;21081;-67
2022/06/01 17:56:54;;;;;;;6.45;3.62;;;;;;;22.86;59.43;99522.98;1787097;79;21015;-69
2022/06/01 17:59:20;;;;;;;16.30;4.45;;;;;;;22.74;59.67;99520.59;1787203;79;21480;-66